sensor_id;sensor_type;location;lat;lon;timestamp;P1;durP1;ratioP1;P2;durP2;ratioP2
63010;SDS011;49100;48.842;2.166;2022-10-14T00:02:24;29.50;;;26.75;;
63010;SDS011;49100;48.842;2.166;2022-10-14T00:05:08;17.00;;;15.25;;
63010;SDS011;49100;48.842;2.166;2022-10-14T00:07:53;21.25;;;19.50;;
63010;SDS011;49100;48.842;2.166;2022-10-14T00:10:39;10.50;;;10.50;;
63010;SDS011;49100;48.842;2.166;2022-10-14T00:13:23;10.25;;;9.25;;
63010;SDS011;49100;48.842;2.166;2022-10-14T00:16:18;16.25;;;11.75;;
63010;SDS011;49100;48.842;2.166;2022-10-14T00:19:05;12.75;;;8.75;;
63010;SDS011;49100;48.842;2.166;2022-10-14T00:21:50;11.75;;;8.25;;
63010;SDS011;49100;48.842;2.166;2022-10-14T00:24:34;8.75;;;8.75;;
63010;SDS011;49100;48.842;2.166;2022-10-14T00:27:19;3.00;;;2.00;;
63010;SDS011;49100;48.842;2.166;2022-10-14T00:30:03;8.00;;;6.00;;
63010;SDS011;49100;48.842;2.166;2022-10-14T00:32:48;12.00;;;8.75;;
63010;SDS011;49100;48.842;2.166;2022-10-14T00:35:32;9.50;;;6.50;;
63010;SDS011;49100;48.842;2.166;2022-10-14T00:38:17;8.50;;;6.25;;
63010;SDS011;49100;48.842;2.166;2022-10-14T00:41:02;6.25;;;6.25;;
63010;SDS011;49100;48.842;2.166;2022-10-14T00:43:51;8.50;;;6.25;;
63010;SDS011;49100;48.842;2.166;2022-10-14T00:46:37;6.00;;;5.25;;
63010;SDS011;49100;48.842;2.166;2022-10-14T00:49:30;8.00;;;6.00;;
63010;SDS011;49100;48.842;2.166;2022-10-14T00:52:19;8.00;;;7.00;;
63010;SDS011;49100;48.842;2.166;2022-10-14T00:55:06;9.75;;;7.00;;
63010;SDS011;49100;48.842;2.166;2022-10-14T00:57:56;8.25;;;6.25;;
63010;SDS011;49100;48.842;2.166;2022-10-14T01:00:41;7.25;;;6.25;;
63010;SDS011;49100;48.842;2.166;2022-10-14T01:03:25;7.25;;;5.75;;
63010;SDS011;49100;48.842;2.166;2022-10-14T01:06:21;12.25;;;6.75;;
63010;SDS011;49100;48.842;2.166;2022-10-14T01:12:31;6.50;;;6.50;;
63010;SDS011;49100;48.842;2.166;2022-10-14T01:15:23;10.25;;;9.00;;
63010;SDS011;49100;48.842;2.166;2022-10-14T01:18:28;9.50;;;8.75;;
63010;SDS011;49100;48.842;2.166;2022-10-14T01:24:39;7.00;;;7.00;;
63010;SDS011;49100;48.842;2.166;2022-10-14T01:30:47;6.50;;;6.50;;
63010;SDS011;49100;48.842;2.166;2022-10-14T01:33:37;9.25;;;5.50;;
63010;SDS011;49100;48.842;2.166;2022-10-14T01:42:32;8.00;;;6.75;;
63010;SDS011;49100;48.842;2.166;2022-10-14T01:45:19;8.50;;;7.50;;
63010;SDS011;49100;48.842;2.166;2022-10-14T01:48:05;7.25;;;7.25;;
63010;SDS011;49100;48.842;2.166;2022-10-14T01:50:49;10.25;;;8.00;;
63010;SDS011;49100;48.842;2.166;2022-10-14T01:53:38;7.25;;;7.25;;
63010;SDS011;49100;48.842;2.166;2022-10-14T01:56:26;8.75;;;8.25;;
63010;SDS011;49100;48.842;2.166;2022-10-14T01:59:13;8.00;;;6.75;;
63010;SDS011;49100;48.842;2.166;2022-10-14T02:02:00;11.75;;;8.25;;
63010;SDS011;49100;48.842;2.166;2022-10-14T02:04:45;9.00;;;9.00;;
63010;SDS011;49100;48.842;2.166;2022-10-14T02:07:37;13.00;;;12.50;;
63010;SDS011;49100;48.842;2.166;2022-10-14T02:13:40;12.25;;;10.50;;
63010;SDS011;49100;48.842;2.166;2022-10-14T02:16:34;12.75;;;11.25;;
63010;SDS011;49100;48.842;2.166;2022-10-14T02:23:27;9.75;;;9.75;;
63010;SDS011;49100;48.842;2.166;2022-10-14T02:25:44;12.50;;;9.75;;
63010;SDS011;49100;48.842;2.166;2022-10-14T02:28:30;8.50;;;8.00;;
63010;SDS011;49100;48.842;2.166;2022-10-14T02:31:15;15.50;;;11.25;;
63010;SDS011;49100;48.842;2.166;2022-10-14T02:34:02;10.75;;;10.75;;
63010;SDS011;49100;48.842;2.166;2022-10-14T02:36:48;11.50;;;9.00;;
63010;SDS011;49100;48.842;2.166;2022-10-14T02:39:35;11.25;;;11.00;;
63010;SDS011;49100;48.842;2.166;2022-10-14T02:42:21;14.25;;;10.50;;
63010;SDS011;49100;48.842;2.166;2022-10-14T02:45:06;10.00;;;10.00;;
63010;SDS011;49100;48.842;2.166;2022-10-14T02:47:51;7.50;;;7.50;;
63010;SDS011;49100;48.842;2.166;2022-10-14T02:50:36;10.00;;;9.50;;
63010;SDS011;49100;48.842;2.166;2022-10-14T02:53:21;16.00;;;10.00;;
63010;SDS011;49100;48.842;2.166;2022-10-14T02:56:05;10.25;;;9.50;;
63010;SDS011;49100;48.842;2.166;2022-10-14T02:58:50;16.00;;;11.50;;
63010;SDS011;49100;48.842;2.166;2022-10-14T03:01:35;13.25;;;13.25;;
63010;SDS011;49100;48.842;2.166;2022-10-14T03:04:19;12.00;;;11.25;;
63010;SDS011;49100;48.842;2.166;2022-10-14T03:07:04;11.75;;;10.25;;
63010;SDS011;49100;48.842;2.166;2022-10-14T03:09:49;9.50;;;8.50;;
63010;SDS011;49100;48.842;2.166;2022-10-14T03:12:34;13.00;;;9.25;;
63010;SDS011;49100;48.842;2.166;2022-10-14T03:15:19;9.25;;;9.00;;
63010;SDS011;49100;48.842;2.166;2022-10-14T03:18:03;14.25;;;9.00;;
63010;SDS011;49100;48.842;2.166;2022-10-14T03:20:47;9.50;;;9.50;;
63010;SDS011;49100;48.842;2.166;2022-10-14T03:23:32;10.75;;;10.75;;
63010;SDS011;49100;48.842;2.166;2022-10-14T03:26:17;12.75;;;12.75;;
63010;SDS011;49100;48.842;2.166;2022-10-14T03:29:02;13.00;;;10.75;;
63010;SDS011;49100;48.842;2.166;2022-10-14T03:31:46;14.00;;;12.75;;
63010;SDS011;49100;48.842;2.166;2022-10-14T03:34:31;11.75;;;10.50;;
63010;SDS011;49100;48.842;2.166;2022-10-14T03:37:15;12.75;;;10.00;;
63010;SDS011;49100;48.842;2.166;2022-10-14T03:40:00;11.00;;;9.00;;
63010;SDS011;49100;48.842;2.166;2022-10-14T03:42:45;15.00;;;10.00;;
63010;SDS011;49100;48.842;2.166;2022-10-14T03:45:30;12.50;;;10.25;;
63010;SDS011;49100;48.842;2.166;2022-10-14T03:48:14;10.25;;;8.75;;
63010;SDS011;49100;48.842;2.166;2022-10-14T03:50:58;15.00;;;10.50;;
63010;SDS011;49100;48.842;2.166;2022-10-14T03:53:43;20.25;;;18.00;;
63010;SDS011;49100;48.842;2.166;2022-10-14T03:56:27;24.75;;;21.75;;
63010;SDS011;49100;48.842;2.166;2022-10-14T03:59:12;20.25;;;19.00;;
63010;SDS011;49100;48.842;2.166;2022-10-14T04:01:56;18.50;;;18.25;;
63010;SDS011;49100;48.842;2.166;2022-10-14T04:04:41;27.50;;;24.00;;
63010;SDS011;49100;48.842;2.166;2022-10-14T04:07:25;23.25;;;22.25;;
63010;SDS011;49100;48.842;2.166;2022-10-14T04:10:09;32.25;;;26.00;;
63010;SDS011;49100;48.842;2.166;2022-10-14T04:12:54;34.25;;;29.25;;
63010;SDS011;49100;48.842;2.166;2022-10-14T04:15:38;15.00;;;14.00;;
63010;SDS011;49100;48.842;2.166;2022-10-14T04:18:23;15.50;;;13.00;;
63010;SDS011;49100;48.842;2.166;2022-10-14T04:21:09;13.00;;;10.25;;
63010;SDS011;49100;48.842;2.166;2022-10-14T04:23:55;31.00;;;26.75;;
63010;SDS011;49100;48.842;2.166;2022-10-14T04:26:39;17.75;;;14.75;;
63010;SDS011;49100;48.842;2.166;2022-10-14T04:29:24;23.50;;;20.50;;
63010;SDS011;49100;48.842;2.166;2022-10-14T04:32:08;34.75;;;31.25;;
63010;SDS011;49100;48.842;2.166;2022-10-14T04:34:53;33.75;;;31.00;;
63010;SDS011;49100;48.842;2.166;2022-10-14T04:37:37;24.50;;;24.00;;
63010;SDS011;49100;48.842;2.166;2022-10-14T04:40:22;34.00;;;31.00;;
63010;SDS011;49100;48.842;2.166;2022-10-14T04:43:09;28.75;;;27.25;;
63010;SDS011;49100;48.842;2.166;2022-10-14T04:45:53;12.25;;;12.25;;
63010;SDS011;49100;48.842;2.166;2022-10-14T04:48:37;31.75;;;29.25;;
63010;SDS011;49100;48.842;2.166;2022-10-14T04:51:22;24.25;;;19.00;;
63010;SDS011;49100;48.842;2.166;2022-10-14T04:54:06;23.75;;;23.50;;
63010;SDS011;49100;48.842;2.166;2022-10-14T04:56:51;28.25;;;22.25;;
63010;SDS011;49100;48.842;2.166;2022-10-14T04:59:36;22.25;;;20.50;;
63010;SDS011;49100;48.842;2.166;2022-10-14T05:02:20;25.50;;;23.50;;
63010;SDS011;49100;48.842;2.166;2022-10-14T05:05:05;32.50;;;25.50;;
63010;SDS011;49100;48.842;2.166;2022-10-14T05:07:50;27.25;;;23.75;;
63010;SDS011;49100;48.842;2.166;2022-10-14T05:10:34;26.50;;;21.75;;
63010;SDS011;49100;48.842;2.166;2022-10-14T05:13:19;27.00;;;23.75;;
63010;SDS011;49100;48.842;2.166;2022-10-14T05:16:05;17.75;;;17.75;;
63010;SDS011;49100;48.842;2.166;2022-10-14T05:18:50;42.25;;;36.75;;
63010;SDS011;49100;48.842;2.166;2022-10-14T05:21:34;36.50;;;29.50;;
63010;SDS011;49100;48.842;2.166;2022-10-14T05:24:18;35.75;;;31.00;;
63010;SDS011;49100;48.842;2.166;2022-10-14T05:27:03;39.25;;;32.75;;
63010;SDS011;49100;48.842;2.166;2022-10-14T05:29:47;42.50;;;35.75;;
63010;SDS011;49100;48.842;2.166;2022-10-14T05:32:32;30.50;;;25.75;;
63010;SDS011;49100;48.842;2.166;2022-10-14T05:35:16;37.25;;;31.25;;
63010;SDS011;49100;48.842;2.166;2022-10-14T05:38:01;21.75;;;19.00;;
63010;SDS011;49100;48.842;2.166;2022-10-14T05:40:53;34.00;;;27.75;;
63010;SDS011;49100;48.842;2.166;2022-10-14T05:43:38;37.25;;;29.00;;
63010;SDS011;49100;48.842;2.166;2022-10-14T05:46:23;30.75;;;28.00;;
63010;SDS011;49100;48.842;2.166;2022-10-14T05:49:09;51.50;;;41.75;;
63010;SDS011;49100;48.842;2.166;2022-10-14T05:51:54;49.25;;;37.00;;
63010;SDS011;49100;48.842;2.166;2022-10-14T05:54:39;35.75;;;30.00;;
63010;SDS011;49100;48.842;2.166;2022-10-14T05:57:23;45.00;;;33.25;;
63010;SDS011;49100;48.842;2.166;2022-10-14T06:00:08;37.00;;;31.00;;
63010;SDS011;49100;48.842;2.166;2022-10-14T06:02:53;45.00;;;37.75;;
63010;SDS011;49100;48.842;2.166;2022-10-14T06:05:37;26.25;;;22.25;;
63010;SDS011;49100;48.842;2.166;2022-10-14T06:08:21;38.50;;;32.75;;
63010;SDS011;49100;48.842;2.166;2022-10-14T06:11:08;41.00;;;35.50;;
63010;SDS011;49100;48.842;2.166;2022-10-14T06:13:52;34.00;;;31.00;;
63010;SDS011;49100;48.842;2.166;2022-10-14T06:16:37;29.50;;;27.00;;
63010;SDS011;49100;48.842;2.166;2022-10-14T06:19:21;29.00;;;26.75;;
63010;SDS011;49100;48.842;2.166;2022-10-14T06:22:06;35.50;;;30.00;;
63010;SDS011;49100;48.842;2.166;2022-10-14T06:24:51;36.50;;;31.75;;
63010;SDS011;49100;48.842;2.166;2022-10-14T06:27:36;30.25;;;26.00;;
63010;SDS011;49100;48.842;2.166;2022-10-14T06:30:21;41.00;;;32.75;;
63010;SDS011;49100;48.842;2.166;2022-10-14T06:33:05;29.75;;;27.25;;
63010;SDS011;49100;48.842;2.166;2022-10-14T06:35:50;38.00;;;33.00;;
63010;SDS011;49100;48.842;2.166;2022-10-14T06:38:34;26.75;;;24.50;;
63010;SDS011;49100;48.842;2.166;2022-10-14T06:41:19;23.50;;;19.75;;
63010;SDS011;49100;48.842;2.166;2022-10-14T06:44:04;28.50;;;25.75;;
63010;SDS011;49100;48.842;2.166;2022-10-14T06:46:48;26.25;;;24.25;;
63010;SDS011;49100;48.842;2.166;2022-10-14T06:49:33;27.00;;;23.75;;
63010;SDS011;49100;48.842;2.166;2022-10-14T06:52:17;22.50;;;22.25;;
63010;SDS011;49100;48.842;2.166;2022-10-14T06:55:02;25.75;;;20.75;;
63010;SDS011;49100;48.842;2.166;2022-10-14T06:57:46;24.50;;;20.75;;
63010;SDS011;49100;48.842;2.166;2022-10-14T07:00:31;26.25;;;24.25;;
63010;SDS011;49100;48.842;2.166;2022-10-14T07:03:15;27.00;;;23.50;;
63010;SDS011;49100;48.842;2.166;2022-10-14T07:06:01;20.50;;;17.00;;
63010;SDS011;49100;48.842;2.166;2022-10-14T07:08:47;20.75;;;19.25;;
63010;SDS011;49100;48.842;2.166;2022-10-14T07:11:31;19.50;;;17.00;;
63010;SDS011;49100;48.842;2.166;2022-10-14T07:14:16;24.50;;;18.75;;
63010;SDS011;49100;48.842;2.166;2022-10-14T07:17:00;23.75;;;22.50;;
63010;SDS011;49100;48.842;2.166;2022-10-14T07:19:44;23.50;;;15.25;;
63010;SDS011;49100;48.842;2.166;2022-10-14T07:22:29;18.50;;;17.25;;
63010;SDS011;49100;48.842;2.166;2022-10-14T07:25:13;15.50;;;13.25;;
63010;SDS011;49100;48.842;2.166;2022-10-14T07:27:58;15.25;;;13.75;;
63010;SDS011;49100;48.842;2.166;2022-10-14T07:30:43;14.75;;;11.25;;
63010;SDS011;49100;48.842;2.166;2022-10-14T07:33:28;13.50;;;11.25;;
63010;SDS011;49100;48.842;2.166;2022-10-14T07:36:14;18.00;;;16.25;;
63010;SDS011;49100;48.842;2.166;2022-10-14T07:38:59;43.00;;;33.50;;
63010;SDS011;49100;48.842;2.166;2022-10-14T07:41:44;23.50;;;20.00;;
63010;SDS011;49100;48.842;2.166;2022-10-14T07:44:29;14.00;;;9.00;;
63010;SDS011;49100;48.842;2.166;2022-10-14T07:47:14;11.75;;;10.50;;
63010;SDS011;49100;48.842;2.166;2022-10-14T07:49:59;18.00;;;15.75;;
63010;SDS011;49100;48.842;2.166;2022-10-14T07:52:44;14.50;;;14.50;;
63010;SDS011;49100;48.842;2.166;2022-10-14T07:55:29;4.50;;;2.00;;
63010;SDS011;49100;48.842;2.166;2022-10-14T07:58:13;16.75;;;12.25;;
63010;SDS011;49100;48.842;2.166;2022-10-14T08:00:58;16.75;;;14.00;;
63010;SDS011;49100;48.842;2.166;2022-10-14T08:03:43;15.50;;;14.25;;
63010;SDS011;49100;48.842;2.166;2022-10-14T08:06:29;12.25;;;11.00;;
63010;SDS011;49100;48.842;2.166;2022-10-14T08:09:13;13.25;;;10.25;;
63010;SDS011;49100;48.842;2.166;2022-10-14T08:11:58;9.25;;;7.75;;
63010;SDS011;49100;48.842;2.166;2022-10-14T08:14:42;10.25;;;9.25;;
63010;SDS011;49100;48.842;2.166;2022-10-14T08:17:27;12.25;;;8.50;;
63010;SDS011;49100;48.842;2.166;2022-10-14T08:20:11;8.75;;;8.75;;
63010;SDS011;49100;48.842;2.166;2022-10-14T08:22:56;8.50;;;7.25;;
63010;SDS011;49100;48.842;2.166;2022-10-14T08:25:41;9.50;;;8.50;;
63010;SDS011;49100;48.842;2.166;2022-10-14T08:28:26;9.00;;;8.25;;
63010;SDS011;49100;48.842;2.166;2022-10-14T08:31:11;8.25;;;7.00;;
63010;SDS011;49100;48.842;2.166;2022-10-14T08:33:56;8.75;;;7.75;;
63010;SDS011;49100;48.842;2.166;2022-10-14T08:36:40;7.25;;;7.25;;
63010;SDS011;49100;48.842;2.166;2022-10-14T08:39:25;8.00;;;6.25;;
63010;SDS011;49100;48.842;2.166;2022-10-14T08:45:17;8.75;;;8.25;;
63010;SDS011;49100;48.842;2.166;2022-10-14T08:48:07;8.00;;;7.25;;
63010;SDS011;49100;48.842;2.166;2022-10-14T08:51:07;13.50;;;12.00;;
63010;SDS011;49100;48.842;2.166;2022-10-14T08:53:57;12.50;;;8.00;;
63010;SDS011;49100;48.842;2.166;2022-10-14T08:56:46;8.75;;;6.50;;
63010;SDS011;49100;48.842;2.166;2022-10-14T08:59:32;10.50;;;6.75;;
63010;SDS011;49100;48.842;2.166;2022-10-14T09:05:21;10.00;;;7.25;;
63010;SDS011;49100;48.842;2.166;2022-10-14T09:08:10;8.50;;;7.25;;
63010;SDS011;49100;48.842;2.166;2022-10-14T09:10:58;10.75;;;7.75;;
63010;SDS011;49100;48.842;2.166;2022-10-14T09:13:50;9.00;;;8.00;;
63010;SDS011;49100;48.842;2.166;2022-10-14T09:16:40;7.50;;;6.50;;
63010;SDS011;49100;48.842;2.166;2022-10-14T09:22:16;7.75;;;6.50;;
63010;SDS011;49100;48.842;2.166;2022-10-14T09:25:01;6.50;;;6.50;;
63010;SDS011;49100;48.842;2.166;2022-10-14T09:27:45;7.25;;;7.25;;
63010;SDS011;49100;48.842;2.166;2022-10-14T09:30:33;6.00;;;6.00;;
63010;SDS011;49100;48.842;2.166;2022-10-14T09:33:19;9.75;;;6.50;;
63010;SDS011;49100;48.842;2.166;2022-10-14T09:36:12;9.25;;;7.25;;
63010;SDS011;49100;48.842;2.166;2022-10-14T09:38:58;9.50;;;6.75;;
63010;SDS011;49100;48.842;2.166;2022-10-14T09:41:44;9.00;;;5.25;;
63010;SDS011;49100;48.842;2.166;2022-10-14T09:44:29;7.75;;;7.00;;
63010;SDS011;49100;48.842;2.166;2022-10-14T09:47:14;6.75;;;6.75;;
63010;SDS011;49100;48.842;2.166;2022-10-14T09:50:01;9.75;;;8.75;;
63010;SDS011;49100;48.842;2.166;2022-10-14T09:52:56;6.50;;;6.50;;
63010;SDS011;49100;48.842;2.166;2022-10-14T09:55:46;9.00;;;7.25;;
63010;SDS011;49100;48.842;2.166;2022-10-14T09:58:41;6.50;;;5.25;;
63010;SDS011;49100;48.842;2.166;2022-10-14T10:01:27;6.25;;;6.25;;
63010;SDS011;49100;48.842;2.166;2022-10-14T10:07:30;6.25;;;6.00;;
63010;SDS011;49100;48.842;2.166;2022-10-14T10:10:17;8.00;;;6.75;;
63010;SDS011;49100;48.842;2.166;2022-10-14T10:13:19;8.00;;;6.75;;
63010;SDS011;49100;48.842;2.166;2022-10-14T10:16:06;6.75;;;6.75;;
63010;SDS011;49100;48.842;2.166;2022-10-14T10:18:53;6.25;;;5.00;;
63010;SDS011;49100;48.842;2.166;2022-10-14T10:21:38;6.50;;;4.50;;
63010;SDS011;49100;48.842;2.166;2022-10-14T10:24:23;6.25;;;6.00;;
63010;SDS011;49100;48.842;2.166;2022-10-14T10:27:50;4.50;;;4.25;;
63010;SDS011;49100;48.842;2.166;2022-10-14T10:30:22;5.00;;;5.00;;
63010;SDS011;49100;48.842;2.166;2022-10-14T10:33:21;7.00;;;6.00;;
63010;SDS011;49100;48.842;2.166;2022-10-14T10:36:34;4.50;;;4.50;;
63010;SDS011;49100;48.842;2.166;2022-10-14T10:39:45;5.00;;;5.00;;
63010;SDS011;49100;48.842;2.166;2022-10-14T10:42:42;6.75;;;4.50;;
63010;SDS011;49100;48.842;2.166;2022-10-14T10:51:29;3.25;;;3.00;;
63010;SDS011;49100;48.842;2.166;2022-10-14T11:00:21;6.00;;;3.00;;
63010;SDS011;49100;48.842;2.166;2022-10-14T11:06:16;4.00;;;4.00;;
63010;SDS011;49100;48.842;2.166;2022-10-14T11:09:32;5.25;;;2.75;;
63010;SDS011;49100;48.842;2.166;2022-10-14T11:13:16;3.00;;;1.00;;
63010;SDS011;49100;48.842;2.166;2022-10-14T11:57:37;8.25;;;5.75;;
63010;SDS011;49100;48.842;2.166;2022-10-14T12:00:26;9.25;;;8.00;;
63010;SDS011;49100;48.842;2.166;2022-10-14T12:06:18;8.75;;;6.25;;
63010;SDS011;49100;48.842;2.166;2022-10-14T12:12:00;5.50;;;4.00;;
63010;SDS011;49100;48.842;2.166;2022-10-14T12:14:48;6.50;;;3.50;;
63010;SDS011;49100;48.842;2.166;2022-10-14T12:17:36;7.00;;;5.50;;
63010;SDS011;49100;48.842;2.166;2022-10-14T12:20:48;5.25;;;5.25;;
63010;SDS011;49100;48.842;2.166;2022-10-14T12:24:16;6.75;;;4.50;;
63010;SDS011;49100;48.842;2.166;2022-10-14T12:27:03;5.50;;;4.75;;
63010;SDS011;49100;48.842;2.166;2022-10-14T12:29:50;5.25;;;3.00;;
63010;SDS011;49100;48.842;2.166;2022-10-14T12:32:35;7.00;;;5.25;;
63010;SDS011;49100;48.842;2.166;2022-10-14T12:38:36;6.25;;;6.25;;
63010;SDS011;49100;48.842;2.166;2022-10-14T12:44:43;5.75;;;4.00;;
63010;SDS011;49100;48.842;2.166;2022-10-14T12:47:34;4.75;;;4.75;;
63010;SDS011;49100;48.842;2.166;2022-10-14T12:51:04;6.00;;;5.00;;
63010;SDS011;49100;48.842;2.166;2022-10-14T12:53:29;6.25;;;5.00;;
63010;SDS011;49100;48.842;2.166;2022-10-14T12:56:28;3.75;;;3.75;;
63010;SDS011;49100;48.842;2.166;2022-10-14T12:59:32;4.75;;;4.25;;
63010;SDS011;49100;48.842;2.166;2022-10-14T13:02:29;6.25;;;5.50;;
63010;SDS011;49100;48.842;2.166;2022-10-14T13:05:32;6.25;;;4.75;;
63010;SDS011;49100;48.842;2.166;2022-10-14T13:11:12;4.75;;;4.00;;
63010;SDS011;49100;48.842;2.166;2022-10-14T13:14:00;7.75;;;4.25;;
63010;SDS011;49100;48.842;2.166;2022-10-14T13:25:18;5.75;;;5.75;;
63010;SDS011;49100;48.842;2.166;2022-10-14T13:28:07;4.75;;;4.75;;
63010;SDS011;49100;48.842;2.166;2022-10-14T13:31:03;7.50;;;5.75;;
63010;SDS011;49100;48.842;2.166;2022-10-14T13:33:53;7.50;;;5.25;;
63010;SDS011;49100;48.842;2.166;2022-10-14T13:36:48;5.25;;;5.25;;
63010;SDS011;49100;48.842;2.166;2022-10-14T13:39:38;8.50;;;6.25;;
63010;SDS011;49100;48.842;2.166;2022-10-14T13:42:24;10.00;;;7.00;;
63010;SDS011;49100;48.842;2.166;2022-10-14T13:45:12;8.25;;;7.25;;
63010;SDS011;49100;48.842;2.166;2022-10-14T13:47:57;8.50;;;7.50;;
63010;SDS011;49100;48.842;2.166;2022-10-14T13:50:42;5.50;;;4.50;;
63010;SDS011;49100;48.842;2.166;2022-10-14T13:53:27;4.50;;;4.50;;
63010;SDS011;49100;48.842;2.166;2022-10-14T13:56:15;4.50;;;4.00;;
63010;SDS011;49100;48.842;2.166;2022-10-14T13:59:17;6.25;;;5.00;;
63010;SDS011;49100;48.842;2.166;2022-10-14T14:02:02;3.75;;;3.75;;
63010;SDS011;49100;48.842;2.166;2022-10-14T14:04:51;6.50;;;3.00;;
63010;SDS011;49100;48.842;2.166;2022-10-14T14:07:38;4.25;;;3.50;;
63010;SDS011;49100;48.842;2.166;2022-10-14T14:10:23;5.50;;;4.50;;
63010;SDS011;49100;48.842;2.166;2022-10-14T14:13:09;8.75;;;5.00;;
63010;SDS011;49100;48.842;2.166;2022-10-14T14:15:55;4.00;;;4.00;;
63010;SDS011;49100;48.842;2.166;2022-10-14T14:18:45;6.00;;;5.00;;
63010;SDS011;49100;48.842;2.166;2022-10-14T14:21:31;6.75;;;4.25;;
63010;SDS011;49100;48.842;2.166;2022-10-14T14:24:17;7.00;;;4.25;;
63010;SDS011;49100;48.842;2.166;2022-10-14T14:27:03;5.00;;;4.00;;
63010;SDS011;49100;48.842;2.166;2022-10-14T14:29:49;5.00;;;3.25;;
63010;SDS011;49100;48.842;2.166;2022-10-14T14:32:35;6.75;;;5.25;;
63010;SDS011;49100;48.842;2.166;2022-10-14T14:35:20;6.75;;;6.25;;
63010;SDS011;49100;48.842;2.166;2022-10-14T14:38:21;4.75;;;4.50;;
63010;SDS011;49100;48.842;2.166;2022-10-14T14:41:20;4.50;;;3.75;;
63010;SDS011;49100;48.842;2.166;2022-10-14T14:44:07;6.75;;;4.00;;
63010;SDS011;49100;48.842;2.166;2022-10-14T14:46:56;4.00;;;4.00;;
63010;SDS011;49100;48.842;2.166;2022-10-14T14:49:42;7.50;;;5.00;;
63010;SDS011;49100;48.842;2.166;2022-10-14T14:52:28;9.50;;;6.75;;
63010;SDS011;49100;48.842;2.166;2022-10-14T15:44:02;10.75;;;10.25;;
63010;SDS011;49100;48.842;2.166;2022-10-14T15:46:47;12.75;;;10.75;;
63010;SDS011;49100;48.842;2.166;2022-10-14T15:49:52;7.50;;;7.50;;
63010;SDS011;49100;48.842;2.166;2022-10-14T15:52:36;11.50;;;8.75;;
63010;SDS011;49100;48.842;2.166;2022-10-14T15:55:24;11.50;;;8.50;;
63010;SDS011;49100;48.842;2.166;2022-10-14T15:58:10;7.50;;;5.25;;
63010;SDS011;49100;48.842;2.166;2022-10-14T16:00:55;3.50;;;3.50;;
63010;SDS011;49100;48.842;2.166;2022-10-14T16:03:40;4.50;;;4.50;;
63010;SDS011;49100;48.842;2.166;2022-10-14T16:06:25;8.75;;;7.25;;
63010;SDS011;49100;48.842;2.166;2022-10-14T16:09:12;13.00;;;10.00;;
63010;SDS011;49100;48.842;2.166;2022-10-14T16:11:57;5.50;;;5.50;;
63010;SDS011;49100;48.842;2.166;2022-10-14T16:14:42;8.00;;;6.25;;
63010;SDS011;49100;48.842;2.166;2022-10-14T16:17:26;7.00;;;4.00;;
63010;SDS011;49100;48.842;2.166;2022-10-14T16:20:11;9.75;;;4.25;;
63010;SDS011;49100;48.842;2.166;2022-10-14T16:22:56;5.25;;;4.25;;
63010;SDS011;49100;48.842;2.166;2022-10-14T16:25:43;5.75;;;5.75;;
63010;SDS011;49100;48.842;2.166;2022-10-14T16:28:29;3.50;;;2.00;;
63010;SDS011;49100;48.842;2.166;2022-10-14T16:31:14;6.67;;;4.00;;
63010;SDS011;49100;48.842;2.166;2022-10-14T16:33:58;8.50;;;4.00;;
63010;SDS011;49100;48.842;2.166;2022-10-14T16:36:45;9.00;;;6.00;;
63010;SDS011;49100;48.842;2.166;2022-10-14T16:39:32;5.25;;;4.00;;
63010;SDS011;49100;48.842;2.166;2022-10-14T16:42:16;5.00;;;5.00;;
63010;SDS011;49100;48.842;2.166;2022-10-14T16:45:01;7.25;;;5.25;;
63010;SDS011;49100;48.842;2.166;2022-10-14T16:47:47;4.75;;;4.75;;
63010;SDS011;49100;48.842;2.166;2022-10-14T16:50:31;6.50;;;5.00;;
63010;SDS011;49100;48.842;2.166;2022-10-14T16:53:16;6.25;;;4.00;;
63010;SDS011;49100;48.842;2.166;2022-10-14T16:56:20;8.50;;;6.50;;
63010;SDS011;49100;48.842;2.166;2022-10-14T16:59:23;6.00;;;6.00;;
63010;SDS011;49100;48.842;2.166;2022-10-14T17:02:11;3.75;;;3.00;;
63010;SDS011;49100;48.842;2.166;2022-10-14T17:04:58;6.00;;;4.75;;
63010;SDS011;49100;48.842;2.166;2022-10-14T17:07:43;6.75;;;5.25;;
63010;SDS011;49100;48.842;2.166;2022-10-14T17:10:28;6.50;;;6.25;;
63010;SDS011;49100;48.842;2.166;2022-10-14T17:13:12;6.00;;;6.00;;
63010;SDS011;49100;48.842;2.166;2022-10-14T17:16:01;5.25;;;5.25;;
63010;SDS011;49100;48.842;2.166;2022-10-14T17:18:47;4.00;;;4.00;;
63010;SDS011;49100;48.842;2.166;2022-10-14T17:21:31;5.25;;;5.25;;
63010;SDS011;49100;48.842;2.166;2022-10-14T17:24:16;4.25;;;4.25;;
63010;SDS011;49100;48.842;2.166;2022-10-14T17:27:01;6.00;;;4.25;;
63010;SDS011;49100;48.842;2.166;2022-10-14T17:29:49;6.50;;;4.75;;
63010;SDS011;49100;48.842;2.166;2022-10-14T17:32:34;8.25;;;5.75;;
63010;SDS011;49100;48.842;2.166;2022-10-14T17:35:18;7.25;;;3.75;;
63010;SDS011;49100;48.842;2.166;2022-10-14T17:38:03;8.25;;;6.00;;
63010;SDS011;49100;48.842;2.166;2022-10-14T17:40:50;3.00;;;3.00;;
63010;SDS011;49100;48.842;2.166;2022-10-14T17:43:35;6.25;;;5.00;;
63010;SDS011;49100;48.842;2.166;2022-10-14T17:46:21;6.25;;;5.50;;
63010;SDS011;49100;48.842;2.166;2022-10-14T17:49:07;8.25;;;6.25;;
63010;SDS011;49100;48.842;2.166;2022-10-14T17:51:52;9.50;;;5.00;;
63010;SDS011;49100;48.842;2.166;2022-10-14T17:54:37;6.50;;;4.50;;
63010;SDS011;49100;48.842;2.166;2022-10-14T17:57:22;7.25;;;5.75;;
63010;SDS011;49100;48.842;2.166;2022-10-14T18:00:07;6.75;;;5.00;;
63010;SDS011;49100;48.842;2.166;2022-10-14T18:02:51;11.50;;;9.25;;
63010;SDS011;49100;48.842;2.166;2022-10-14T18:05:36;7.00;;;6.00;;
63010;SDS011;49100;48.842;2.166;2022-10-14T18:08:22;6.00;;;3.00;;
63010;SDS011;49100;48.842;2.166;2022-10-14T18:11:08;22.50;;;20.50;;
63010;SDS011;49100;48.842;2.166;2022-10-14T18:13:54;81.50;;;65.25;;
63010;SDS011;49100;48.842;2.166;2022-10-14T18:16:42;100.25;;;87.25;;
63010;SDS011;49100;48.842;2.166;2022-10-14T18:19:26;58.50;;;42.75;;
63010;SDS011;49100;48.842;2.166;2022-10-14T18:22:11;28.00;;;20.50;;
63010;SDS011;49100;48.842;2.166;2022-10-14T18:24:57;52.00;;;38.75;;
63010;SDS011;49100;48.842;2.166;2022-10-14T18:27:42;56.75;;;43.25;;
63010;SDS011;49100;48.842;2.166;2022-10-14T18:30:27;20.25;;;14.50;;
63010;SDS011;49100;48.842;2.166;2022-10-14T18:33:12;11.25;;;11.25;;
63010;SDS011;49100;48.842;2.166;2022-10-14T18:35:57;24.50;;;17.50;;
63010;SDS011;49100;48.842;2.166;2022-10-14T18:38:42;16.50;;;14.00;;
63010;SDS011;49100;48.842;2.166;2022-10-14T18:41:32;14.75;;;11.00;;
63010;SDS011;49100;48.842;2.166;2022-10-14T18:44:17;12.75;;;10.75;;
63010;SDS011;49100;48.842;2.166;2022-10-14T18:47:02;9.25;;;8.25;;
63010;SDS011;49100;48.842;2.166;2022-10-14T18:49:47;10.50;;;8.00;;
63010;SDS011;49100;48.842;2.166;2022-10-14T18:52:32;12.50;;;9.25;;
63010;SDS011;49100;48.842;2.166;2022-10-14T18:55:17;16.50;;;8.75;;
63010;SDS011;49100;48.842;2.166;2022-10-14T18:58:01;10.75;;;6.75;;
63010;SDS011;49100;48.842;2.166;2022-10-14T19:00:46;9.75;;;8.00;;
63010;SDS011;49100;48.842;2.166;2022-10-14T19:03:30;6.25;;;5.25;;
63010;SDS011;49100;48.842;2.166;2022-10-14T19:06:17;14.75;;;11.00;;
63010;SDS011;49100;48.842;2.166;2022-10-14T19:09:03;12.75;;;7.00;;
63010;SDS011;49100;48.842;2.166;2022-10-14T19:11:49;8.25;;;6.00;;
63010;SDS011;49100;48.842;2.166;2022-10-14T19:14:34;12.25;;;7.75;;
63010;SDS011;49100;48.842;2.166;2022-10-14T19:17:19;8.00;;;6.50;;
63010;SDS011;49100;48.842;2.166;2022-10-14T19:20:04;6.00;;;6.00;;